Aérodrome :
LOGIN :

S'inscrire | Disclaimer

   EN    FR    IT 

 










Légende :    VFR   VFR Marginal   IFR   IFR Intensif   IFR Très Intensif
Visi : 
Plafond : 
>= 8 km
>= 3000ft
5 à 8 km
1000 à 3000 ft
1500m à 5 km
500 à 1000 ft
800 à 1500m
200 à 500 ft
< 800m
< 200 ft
Symboles :   Orages  Brouillard  Fortes neiges  Fortes précipitations  Vent > 20 kt
SIGMETs :   Divers  Orages  Givrage  Turbulence  Onde Orograph.  Cendres Volcan.







- Altitude de l'aérodrome : 580 ft
- Voir les cartes d'approche


LFOA - Avord

DERNIER METAR :
  • 170400Z AUTO 10004KT CAVOK 12/11 Q1022

METARs EXPIRÉS :
  • 170330Z AUTO 11003KT CAVOK 12/11 Q1022
  • 170300Z AUTO 10003KT CAVOK 12/11 Q1023
  • 170230Z AUTO VRB03KT CAVOK 13/12 Q1023
  • 170200Z AUTO 14002KT CAVOK 13/12 Q1023
  • 170130Z AUTO 12003KT CAVOK 13/12 Q1023

TAF TAF LFOA
Valide du 16 à 21h jusqu'au 17 à 21h UTC


162000Z 1621/1721 VRB02KT CAVOK
PROB30
TEMPO 1703/1707 4000 MIFG
Pas de NOTAMs connus pour ce terrain.



MET'MAP, la Météo Aéronautique d'un coup d'oeil ! - Copyright ORBIFLY Décembre 2007 - Disclaimer

ORBIFLY MET'MAP TEAM :

Programmation & Développement : Alexandra Zaïnal
Conception & Développement : Baudouin d'Aumeries
Co-Programmation & Développement : Marc-Olivier Méhu
Soutien technique & logistique : Manuel Goepfert

Contact : metmap@orbifly.com




SOURCES & CREDITS :

   NOAA